메인 페이지
METAR-TAF:

METAR-TAF

공항 :

베드포드, 매사추세츠, 미국

위도: 42-28-06N, 경도: 071-17-40W, 고도: 40m

현재 날씨관측

예보는 32분 전, 03:51시(UTC)에 발표되었습니다.
북서16kt, 순간 최대 풍속 24kt
온도 -4°C
습도 46%
기압 1005 hPa
시정: 16.1km
맑음

METAR: KBED 050351Z AUTO 31016G24KT 10SM CLR M04/M14 A2968 RMK AO2 PK WND 32032/0314 SLP064 T10391139

시각: 23:23 (04:23 UTC)

예보

예보는 1 시간 14분 전, 03:09시(UTC)에 발표되었습니다.
예보 대상 시간: 05일 03시부터 05일 24시까지 (UTC)
북서15kt, 순간 최대 풍속 25kt
시정: 10km
맑음
05일 0800시부터 (UTC)
서북서9kt
시정: 10km
고도 10000ft 상공 구름 많음

TAF: KBED 050309Z 0503/0524 31015G25KT P6SM SKC FM050800 30009KT P6SM BKN100

4,000개 이상의 공항 관측 자료 및 예보 (METAR 및 TAF 보고).

지도상에서 검색 가능한 기상관측소가 노란 점과 빨간 점으로 표시되어 있습니다.

기상관측소 명을 보려면 표시 위로 마우스를 이동하세요.

날씨 관측과 예보를 보려면 클릭하세요.

지도 변경 : 확대하려면 엑스 표시가 있는 녹색 버튼, 축소하려면 빼기 표시가 있는 녹색 버튼, 다음 페이지의 지도를 보려면 녹색 화살표를 클릭하세요.


METAR-TAF: